Time;durP1;ratioP1;P1;durP2;ratioP2;P2;SDS_P1;SDS_P2;PMS_P1;PMS_P2;Temp;Humidity;BMP_temperature;BMP_pressure;BME280_temperature;BME280_humidity;BME280_pressure;Samples;Min_cycle;Max_cycle;Signal;HPM_P1;HPM_P2
2021/08/23 00:01:11;;;;;;;5.10;1.48;;;;;;;;;;5012900;28;20482;-60
2021/08/23 00:03:40;;;;;;;2.33;1.42;;;;;;;;;;5010096;28;20816;-60
2021/08/23 00:06:08;;;;;;;3.22;1.40;;;;;;;;;;5012044;28;20063;-60
2021/08/23 00:08:37;;;;;;;4.82;1.67;;;;;;;;;;5008177;28;20128;-60
2021/08/23 00:11:06;;;;;;;4.45;1.40;;;;;;;;;;5012952;28;20052;-60
2021/08/23 00:13:34;;;;;;;2.75;1.60;;;;;;;;;;5011570;28;20371;-60
2021/08/23 00:16:02;;;;;;;2.58;1.55;;;;;;;;;;5013366;28;20145;-60
2021/08/23 00:18:31;;;;;;;3.58;1.70;;;;;;;;;;5012373;28;20041;-59
2021/08/23 00:21:02;;;;;;;5.45;1.67;;;;;;;;;;5011730;28;20056;-59
2021/08/23 00:23:35;;;;;;;2.75;1.27;;;;;;;;;;5011492;28;20053;-60
2021/08/23 00:26:22;;;;;;;2.22;1.50;;;;;;;;;;5013151;28;20132;-59
2021/08/23 00:28:50;;;;;;;2.35;1.10;;;;;;;;;;5009272;28;20053;-59
2021/08/23 00:31:19;;;;;;;3.63;1.52;;;;;;;;;;5012783;28;20060;-59
2021/08/23 00:33:47;;;;;;;5.43;1.33;;;;;;;;;;5010197;28;20073;-59
2021/08/23 00:36:15;;;;;;;2.65;1.50;;;;;;;;;;5011441;28;20046;-59
2021/08/23 00:38:44;;;;;;;2.83;1.30;;;;;;;;;;5011784;28;20038;-59
2021/08/23 00:41:12;;;;;;;3.55;1.63;;;;;;;;;;5011716;28;20045;-60
2021/08/23 00:43:41;;;;;;;2.72;1.55;;;;;;;;;;5011351;28;20042;-59
2021/08/23 00:46:10;;;;;;;3.90;1.48;;;;;;;;;;5011638;28;20053;-59
2021/08/23 00:48:39;;;;;;;3.55;1.60;;;;;;;;;;5012319;28;20426;-59
2021/08/23 00:51:07;;;;;;;4.53;1.65;;;;;;;;;;5011149;28;20428;-60
2021/08/23 00:53:35;;;;;;;3.00;1.20;;;;;;;;;;5010379;28;20137;-59
2021/08/23 00:56:04;;;;;;;6.28;1.83;;;;;;;;;;5008052;28;20042;-60
2021/08/23 00:58:32;;;;;;;2.22;1.65;;;;;;;;;;5011285;28;20052;-60
2021/08/23 01:01:04;;;;;;;5.28;1.70;;;;;;;;;;4996222;28;20074;-60
2021/08/23 01:03:36;;;;;;;3.17;1.40;;;;;;;;;;5036156;23;20068;-86
2021/08/23 01:06:06;;;;;;;4.38;1.88;;;;;;;;;;4999656;28;20050;-86
2021/08/23 01:08:38;;;;;;;3.53;1.88;;;;;;;;;;5005006;28;20049;-86
2021/08/23 01:11:08;;;;;;;2.90;1.65;;;;;;;;;;5014463;28;20566;-86
2021/08/23 01:13:38;;;;;;;3.05;1.52;;;;;;;;;;5015066;28;20042;-86
2021/08/23 01:16:08;;;;;;;3.58;1.65;;;;;;;;;;5014412;28;20478;-85
2021/08/23 01:18:37;;;;;;;5.32;1.65;;;;;;;;;;5016859;28;20080;-86
2021/08/23 01:21:08;;;;;;;3.15;1.70;;;;;;;;;;5017434;28;20128;-85
2021/08/23 01:23:37;;;;;;;5.60;1.90;;;;;;;;;;5015179;28;20042;-86
2021/08/23 01:26:06;;;;;;;3.15;1.70;;;;;;;;;;5016228;28;20042;-86
2021/08/23 01:28:41;;;;;;;4.45;2.10;;;;;;;;;;5017154;28;20050;-86
2021/08/23 01:31:18;;;;;;;4.43;1.70;;;;;;;;;;5015152;28;20077;-86
2021/08/23 01:33:49;;;;;;;3.88;1.90;;;;;;;;;;4998135;28;20046;-86
2021/08/23 01:36:19;;;;;;;3.75;1.70;;;;;;;;;;5016928;28;20053;-86
2021/08/23 01:38:48;;;;;;;4.63;1.95;;;;;;;;;;5016458;28;20544;-85
2021/08/23 01:41:16;;;;;;;6.43;1.70;;;;;;;;;;5013096;28;20042;-85
2021/08/23 01:43:45;;;;;;;2.22;1.42;;;;;;;;;;5018499;28;20084;-85
2021/08/23 01:46:13;;;;;;;4.88;1.48;;;;;;;;;;5024403;28;20045;-84
2021/08/23 01:48:42;;;;;;;1.77;1.38;;;;;;;;;;5025960;28;20050;-86
2021/08/23 01:51:13;;;;;;;5.55;1.67;;;;;;;;;;5028014;28;20049;-85
2021/08/23 01:53:42;;;;;;;3.90;1.60;;;;;;;;;;5034743;28;20076;-86
2021/08/23 01:56:10;;;;;;;3.13;1.33;;;;;;;;;;5021114;28;20532;-86
2021/08/23 01:58:39;;;;;;;3.65;1.60;;;;;;;;;;5019311;28;20057;-85
2021/08/23 02:01:08;;;;;;;4.22;1.55;;;;;;;;;;5016710;28;20582;-85
2021/08/23 02:03:36;;;;;;;3.20;1.83;;;;;;;;;;4997090;28;20101;-86
2021/08/23 02:06:05;;;;;;;7.32;1.60;;;;;;;;;;5001197;28;20045;-86
2021/08/23 02:08:35;;;;;;;3.65;1.83;;;;;;;;;;5015395;28;20089;-86
2021/08/23 02:11:04;;;;;;;6.93;1.60;;;;;;;;;;5016587;28;20056;-85
2021/08/23 02:13:32;;;;;;;2.72;1.48;;;;;;;;;;5014674;28;20049;-85
2021/08/23 02:16:01;;;;;;;2.40;1.50;;;;;;;;;;5015582;28;20037;-86
2021/08/23 02:18:29;;;;;;;4.28;1.73;;;;;;;;;;5011521;28;20463;-85
2021/08/23 02:20:58;;;;;;;2.97;1.50;;;;;;;;;;5015038;28;20136;-87
2021/08/23 02:23:27;;;;;;;4.00;1.35;;;;;;;;;;5014444;28;20038;-85
2021/08/23 02:25:57;;;;;;;3.53;1.75;;;;;;;;;;5015749;28;20058;-86
2021/08/23 02:28:25;;;;;;;2.00;1.30;;;;;;;;;;5001533;28;20049;-85
2021/08/23 02:30:55;;;;;;;4.40;1.67;;;;;;;;;;5016054;28;20077;-86
2021/08/23 02:33:26;;;;;;;2.45;1.38;;;;;;;;;;5016434;28;20122;-86
2021/08/23 02:35:55;;;;;;;2.45;1.35;;;;;;;;;;4964487;28;20585;-86
2021/08/23 02:38:26;;;;;;;3.47;1.70;;;;;;;;;;4974206;28;20055;-85
2021/08/23 02:40:56;;;;;;;2.75;1.48;;;;;;;;;;4973821;28;20137;-87
2021/08/23 02:43:25;;;;;;;3.42;1.45;;;;;;;;;;4973274;28;20443;-86
2021/08/23 02:45:55;;;;;;;3.47;1.70;;;;;;;;;;4975726;28;20069;-85
2021/08/23 02:48:24;;;;;;;3.78;1.38;;;;;;;;;;4976899;28;20114;-88
2021/08/23 02:50:52;;;;;;;3.33;1.80;;;;;;;;;;4979982;28;20059;-86
2021/08/23 02:53:22;;;;;;;3.83;1.40;;;;;;;;;;4977929;28;20051;-86
2021/08/23 02:55:59;;;;;;;2.75;1.50;;;;;;;;;;4976168;28;20078;-86
2021/08/23 02:58:28;;;;;;;6.50;1.33;;;;;;;;;;4960152;29;20055;-85
2021/08/23 03:00:57;;;;;;;3.50;1.27;;;;;;;;;;4975554;28;20046;-85
2021/08/23 03:03:25;;;;;;;2.75;1.40;;;;;;;;;;4976602;28;20542;-86
2021/08/23 03:05:54;;;;;;;2.30;1.50;;;;;;;;;;4978115;28;20059;-85
2021/08/23 03:08:23;;;;;;;3.58;1.50;;;;;;;;;;5017848;28;20148;-85
2021/08/23 03:10:54;;;;;;;3.08;1.42;;;;;;;;;;5015216;28;20089;-85
2021/08/23 03:13:24;;;;;;;2.63;1.63;;;;;;;;;;5020286;28;20058;-85
2021/08/23 03:15:53;;;;;;;2.45;1.35;;;;;;;;;;5020013;28;20085;-85
2021/08/23 03:18:22;;;;;;;4.32;1.60;;;;;;;;;;5020378;28;20042;-85
2021/08/23 03:20:50;;;;;;;3.60;1.58;;;;;;;;;;5019202;28;20394;-86
2021/08/23 03:23:19;;;;;;;3.28;1.50;;;;;;;;;;5019914;28;20048;-86
2021/08/23 03:25:47;;;;;;;3.22;1.42;;;;;;;;;;4994691;28;20502;-85
2021/08/23 03:28:18;;;;;;;3.83;1.73;;;;;;;;;;5018951;28;20050;-86
2021/08/23 03:30:58;;;;;;;4.90;1.55;;;;;;;;;;2343001;28;10023694;-86
2021/08/23 03:33:28;;;;;;;3.25;1.58;;;;;;;;;;3623378;28;10001492;-87
2021/08/23 03:35:56;;;;;;;4.28;1.50;;;;;;;;;;5021909;28;20042;-85
2021/08/23 03:38:24;;;;;;;3.10;2.00;;;;;;;;;;5022480;28;20049;-86
2021/08/23 03:40:53;;;;;;;2.92;1.70;;;;;;;;;;5016015;28;20052;-85
2021/08/23 03:43:21;;;;;;;4.75;1.48;;;;;;;;;;5016326;28;20054;-85
2021/08/23 03:45:50;;;;;;;5.03;1.88;;;;;;;;;;5014682;28;20050;-85
2021/08/23 03:48:19;;;;;;;3.22;1.52;;;;;;;;;;5016238;28;20068;-85
2021/08/23 03:50:48;;;;;;;2.60;1.60;;;;;;;;;;5006776;28;20077;-86
2021/08/23 03:53:16;;;;;;;3.10;1.58;;;;;;;;;;5015575;28;20516;-86
2021/08/23 03:55:44;;;;;;;2.30;1.40;;;;;;;;;;5014712;28;20070;-87
2021/08/23 03:58:13;;;;;;;2.40;1.50;;;;;;;;;;5015381;28;20132;-86
2021/08/23 04:00:41;;;;;;;3.10;1.70;;;;;;;;;;5015291;28;20137;-84
2021/08/23 04:03:10;;;;;;;2.38;1.58;;;;;;;;;;5015188;28;20046;-84
2021/08/23 04:05:40;;;;;;;2.83;1.40;;;;;;;;;;5014204;28;20077;-86
2021/08/23 04:08:08;;;;;;;3.55;1.52;;;;;;;;;;5013762;28;20050;-86
2021/08/23 04:10:36;;;;;;;4.35;1.40;;;;;;;;;;5014375;28;20044;-85
2021/08/23 04:13:05;;;;;;;2.35;1.27;;;;;;;;;;5014817;28;20145;-85
2021/08/23 04:15:33;;;;;;;2.55;1.60;;;;;;;;;;5014669;28;20045;-85
2021/08/23 04:18:01;;;;;;;4.95;1.52;;;;;;;;;;5015011;28;20049;-85
2021/08/23 04:20:30;;;;;;;2.92;1.65;;;;;;;;;;5016226;28;20132;-86
2021/08/23 04:22:59;;;;;;;2.95;1.67;;;;;;;;;;5014442;28;20104;-86
2021/08/23 04:25:27;;;;;;;3.53;1.52;;;;;;;;;;5015791;28;20157;-86
2021/08/23 04:27:56;;;;;;;1.85;1.30;;;;;;;;;;5001827;28;20042;-86
2021/08/23 04:30:24;;;;;;;3.55;1.80;;;;;;;;;;5003422;28;20113;-86
2021/08/23 04:32:52;;;;;;;4.93;1.38;;;;;;;;;;5005447;28;20115;-85
2021/08/23 04:35:21;;;;;;;4.18;1.88;;;;;;;;;;5015015;28;20088;-86
2021/08/23 04:37:49;;;;;;;2.88;1.52;;;;;;;;;;5016443;28;20092;-85
2021/08/23 04:40:20;;;;;;;4.20;1.52;;;;;;;;;;5015871;28;20068;-86
2021/08/23 04:42:48;;;;;;;2.85;1.48;;;;;;;;;;5015555;28;20084;-85
2021/08/23 04:45:16;;;;;;;6.53;1.38;;;;;;;;;;5015048;28;20546;-85
2021/08/23 04:47:45;;;;;;;4.60;1.65;;;;;;;;;;5014317;28;20081;-86
2021/08/23 04:50:13;;;;;;;2.55;1.35;;;;;;;;;;5014930;28;20048;-85
2021/08/23 04:52:42;;;;;;;2.42;1.60;;;;;;;;;;5013429;28;20060;-86
2021/08/23 04:55:11;;;;;;;3.17;1.40;;;;;;;;;;5010237;28;20053;-86
2021/08/23 04:57:41;;;;;;;1.88;1.40;;;;;;;;;;5020892;28;20168;-86
2021/08/23 05:00:10;;;;;;;2.25;1.52;;;;;;;;;;5006336;28;20112;-83
2021/08/23 05:02:38;;;;;;;3.45;1.65;;;;;;;;;;5011107;28;20050;-85
2021/08/23 05:05:08;;;;;;;3.60;1.75;;;;;;;;;;5012361;28;20437;-86
2021/08/23 05:07:36;;;;;;;4.15;1.27;;;;;;;;;;5010377;28;20068;-86
2021/08/23 05:10:05;;;;;;;3.92;1.67;;;;;;;;;;5015386;28;20053;-85
2021/08/23 05:12:34;;;;;;;4.07;1.50;;;;;;;;;;5014038;28;20050;-85
2021/08/23 05:15:07;;;;;;;2.35;1.52;;;;;;;;;;5014646;28;20054;-86
2021/08/23 05:17:36;;;;;;;3.90;1.48;;;;;;;;;;5013778;28;20062;-86
2021/08/23 05:20:04;;;;;;;4.15;1.80;;;;;;;;;;5014582;28;20058;-86
2021/08/23 05:22:33;;;;;;;3.10;1.73;;;;;;;;;;5015820;28;20505;-86
2021/08/23 05:25:02;;;;;;;2.70;1.33;;;;;;;;;;4995532;28;20073;-90
2021/08/23 05:27:31;;;;;;;3.70;1.65;;;;;;;;;;4992691;28;20585;-87
2021/08/23 05:30:02;;;;;;;3.78;1.50;;;;;;;;;;5013211;28;20045;-86
2021/08/23 05:32:31;;;;;;;3.55;1.85;;;;;;;;;;5011560;28;20132;-87
2021/08/23 05:35:00;;;;;;;5.72;1.60;;;;;;;;;;5008714;28;20049;-87
2021/08/23 05:37:28;;;;;;;3.13;1.40;;;;;;;;;;5008918;28;20054;-87
2021/08/23 05:39:57;;;;;;;3.17;1.73;;;;;;;;;;5011078;28;20081;-88
2021/08/23 05:42:25;;;;;;;3.75;2.10;;;;;;;;;;5010608;28;20072;-87
2021/08/23 05:44:54;;;;;;;3.13;1.73;;;;;;;;;;5009832;28;20052;-87
2021/08/23 05:47:22;;;;;;;4.57;1.95;;;;;;;;;;5009613;28;20069;-87
2021/08/23 05:49:52;;;;;;;3.08;1.58;;;;;;;;;;5010422;28;20108;-87
2021/08/23 05:52:21;;;;;;;3.38;1.67;;;;;;;;;;5009852;28;20050;-87
2021/08/23 05:54:50;;;;;;;4.53;1.67;;;;;;;;;;5011947;28;20115;-87
2021/08/23 05:57:18;;;;;;;3.28;1.90;;;;;;;;;;5006847;28;20099;-87
2021/08/23 05:59:47;;;;;;;2.42;1.45;;;;;;;;;;5013615;28;20100;-87
2021/08/23 06:02:16;;;;;;;2.45;1.48;;;;;;;;;;5010427;28;20401;-87
2021/08/23 06:04:46;;;;;;;3.42;1.70;;;;;;;;;;5010843;28;20049;-87
2021/08/23 06:07:16;;;;;;;3.97;1.67;;;;;;;;;;5012903;28;20302;-87
2021/08/23 06:09:45;;;;;;;3.17;2.05;;;;;;;;;;5009834;28;20387;-88
2021/08/23 06:12:13;;;;;;;3.50;1.80;;;;;;;;;;5010089;28;20101;-86
2021/08/23 06:14:42;;;;;;;3.42;1.55;;;;;;;;;;5008371;28;20447;-87
2021/08/23 06:17:11;;;;;;;4.07;1.95;;;;;;;;;;5010631;28;20057;-87
2021/08/23 06:19:39;;;;;;;3.95;1.42;;;;;;;;;;5005392;28;20125;-86
2021/08/23 06:22:07;;;;;;;3.33;1.70;;;;;;;;;;5010554;28;20067;-89
2021/08/23 06:24:37;;;;;;;2.60;1.50;;;;;;;;;;5010447;28;20103;-89
2021/08/23 06:27:06;;;;;;;2.85;1.55;;;;;;;;;;5014015;28;20089;-88
2021/08/23 06:29:34;;;;;;;2.95;1.52;;;;;;;;;;5013547;28;20100;-87
2021/08/23 06:32:03;;;;;;;4.28;1.58;;;;;;;;;;5013770;28;20145;-88
2021/08/23 06:34:32;;;;;;;3.58;1.77;;;;;;;;;;5016087;28;20054;-89
2021/08/23 06:37:01;;;;;;;5.30;1.88;;;;;;;;;;5010362;28;20050;-88
2021/08/23 06:39:29;;;;;;;4.45;1.90;;;;;;;;;;5010464;28;20060;-87
2021/08/23 06:41:59;;;;;;;2.38;1.52;;;;;;;;;;5000455;28;20137;-84
2021/08/23 06:44:27;;;;;;;4.07;1.40;;;;;;;;;;5002213;28;20045;-88
2021/08/23 06:47:03;;;;;;;4.63;1.73;;;;;;;;;;5010322;28;20058;-88
2021/08/23 06:49:31;;;;;;;4.47;1.85;;;;;;;;;;5009470;28;20133;-87
2021/08/23 06:52:00;;;;;;;5.80;1.98;;;;;;;;;;5011319;28;20409;-88
2021/08/23 06:54:28;;;;;;;3.78;1.73;;;;;;;;;;5007878;28;20058;-87
2021/08/23 06:56:57;;;;;;;4.65;1.70;;;;;;;;;;5007290;28;20053;-88
2021/08/23 06:59:27;;;;;;;3.67;1.65;;;;;;;;;;5009490;28;20128;-88
2021/08/23 07:01:56;;;;;;;2.90;1.50;;;;;;;;;;5005798;28;20542;-87
2021/08/23 07:04:24;;;;;;;4.03;2.05;;;;;;;;;;5005107;28;20133;-89
2021/08/23 07:07:00;;;;;;;5.32;2.20;;;;;;;;;;5010616;28;20544;-90
2021/08/23 07:09:30;;;;;;;3.92;1.70;;;;;;;;;;4986553;28;20474;-89
2021/08/23 07:11:59;;;;;;;3.17;1.92;;;;;;;;;;5009902;28;20092;-88
2021/08/23 07:14:31;;;;;;;3.60;1.90;;;;;;;;;;5009188;28;20061;-89
2021/08/23 07:19:45;;;;;;;3.50;2.08;;;;;;;;;;5008890;28;20137;-85
2021/08/23 07:22:23;;;;;;;3.72;1.60;;;;;;;;;;5014912;28;20513;-89
2021/08/23 07:24:59;;;;;;;4.07;1.58;;;;;;;;;;5009039;28;20112;-91
2021/08/23 07:27:28;;;;;;;3.67;1.50;;;;;;;;;;4989194;28;20096;-89
2021/08/23 07:29:58;;;;;;;3.75;1.60;;;;;;;;;;5010123;28;20042;-91
2021/08/23 07:32:26;;;;;;;4.55;1.88;;;;;;;;;;5011218;28;20081;-89
2021/08/23 07:34:57;;;;;;;2.67;1.40;;;;;;;;;;5009074;28;20135;-90
2021/08/23 07:37:26;;;;;;;7.03;1.67;;;;;;;;;;5009699;28;20193;-89
2021/08/23 07:39:54;;;;;;;3.00;1.60;;;;;;;;;;5008833;28;20057;-89
2021/08/23 07:42:23;;;;;;;3.38;1.75;;;;;;;;;;5009893;28;20073;-88
2021/08/23 07:44:51;;;;;;;2.38;1.60;;;;;;;;;;5033066;28;20057;-88
2021/08/23 07:47:21;;;;;;;2.35;1.75;;;;;;;;;;5024131;28;20057;-89
2021/08/23 07:49:50;;;;;;;2.75;1.38;;;;;;;;;;5013916;28;20061;-88
2021/08/23 07:52:19;;;;;;;2.75;1.60;;;;;;;;;;5008080;28;20081;-87
2021/08/23 07:54:47;;;;;;;2.72;1.60;;;;;;;;;;5013443;28;20517;-87
2021/08/23 07:57:16;;;;;;;3.55;1.80;;;;;;;;;;5013904;28;20342;-87
2021/08/23 07:59:45;;;;;;;2.65;1.40;;;;;;;;;;5014596;28;20157;-87
2021/08/23 08:02:13;;;;;;;3.35;1.80;;;;;;;;;;5012839;28;20064;-87
2021/08/23 08:04:43;;;;;;;3.22;1.77;;;;;;;;;;5014277;28;20152;-87
2021/08/23 08:07:11;;;;;;;4.40;1.70;;;;;;;;;;5014883;28;20133;-86
2021/08/23 08:09:40;;;;;;;5.38;1.70;;;;;;;;;;5014908;28;20464;-88
2021/08/23 08:12:08;;;;;;;4.38;2.00;;;;;;;;;;5016440;28;20372;-87
2021/08/23 08:14:37;;;;;;;3.08;1.60;;;;;;;;;;5006976;28;20111;-87
2021/08/23 08:17:05;;;;;;;3.00;1.73;;;;;;;;;;5007805;28;20049;-88
2021/08/23 08:19:34;;;;;;;6.07;1.85;;;;;;;;;;5026999;28;20084;-88
2021/08/23 08:22:14;;;;;;;5.28;1.85;;;;;;;;;;5023590;28;20049;-87
2021/08/23 08:24:45;;;;;;;3.83;1.70;;;;;;;;;;5016384;28;20060;-88
2021/08/23 08:27:13;;;;;;;7.50;2.10;;;;;;;;;;5016639;28;20053;-86
2021/08/23 08:29:45;;;;;;;3.72;1.75;;;;;;;;;;5018280;28;20116;-88
2021/08/23 08:32:14;;;;;;;4.70;1.90;;;;;;;;;;5017960;28;20057;-88
2021/08/23 08:34:42;;;;;;;4.53;1.98;;;;;;;;;;5012666;28;20160;-88
2021/08/23 08:37:12;;;;;;;4.70;1.63;;;;;;;;;;5011969;28;20049;-86
2021/08/23 08:39:41;;;;;;;3.85;1.77;;;;;;;;;;4993174;28;20049;-88
2021/08/23 08:42:10;;;;;;;4.93;1.45;;;;;;;;;;5012412;28;20146;-87
2021/08/23 08:44:51;;;;;;;4.55;1.98;;;;;;;;;;5017442;28;20057;-87
2021/08/23 08:47:22;;;;;;;;;;;;;;;;;;5020264;28;20056;-84
2021/08/23 08:49:50;;;;;;;4.82;1.70;;;;;;;;;;5019803;28;19936;-88
2021/08/23 08:52:21;;;;;;;3.22;1.98;;;;;;;;;;5015931;28;20554;-84
2021/08/23 08:54:50;;;;;;;3.70;2.00;;;;;;;;;;5012465;28;20149;-87
2021/08/23 08:57:19;;;;;;;4.00;1.60;;;;;;;;;;5016174;28;20046;-86
2021/08/23 08:59:51;;;;;;;4.35;2.20;;;;;;;;;;5014247;28;20062;-86
2021/08/23 09:02:23;;;;;;;3.42;1.70;;;;;;;;;;5016048;28;20054;-88
2021/08/23 09:04:54;;;;;;;3.75;1.50;;;;;;;;;;5016989;28;20046;-87
2021/08/23 09:07:24;;;;;;;6.15;1.83;;;;;;;;;;5010125;28;20042;-84
2021/08/23 09:09:52;;;;;;;3.30;1.65;;;;;;;;;;5003604;28;20070;-87
2021/08/23 09:12:21;;;;;;;3.47;1.52;;;;;;;;;;5013717;28;20041;-88
2021/08/23 09:14:56;;;;;;;5.68;1.50;;;;;;;;;;5015712;28;21153;-88
2021/08/23 09:17:26;;;;;;;2.35;1.60;;;;;;;;;;5013449;28;20052;-87
2021/08/23 09:19:59;;;;;;;3.00;1.20;;;;;;;;;;5010980;28;20573;-86
2021/08/23 09:22:28;;;;;;;3.97;1.75;;;;;;;;;;5001887;28;20045;-87
2021/08/23 09:25:10;;;;;;;1.75;1.25;;;;;;;;;;5012077;28;20517;-87
2021/08/23 09:27:45;;;;;;;3.67;1.60;;;;;;;;;;5011710;28;20643;-86
2021/08/23 09:30:14;;;;;;;3.22;1.20;;;;;;;;;;5007295;28;20052;-83
2021/08/23 09:32:51;;;;;;;2.25;1.27;;;;;;;;;;5011503;28;20540;-86
2021/08/23 09:35:26;;;;;;;2.72;1.33;;;;;;;;;;5007251;28;20056;-87
2021/08/23 09:37:57;;;;;;;4.35;1.60;;;;;;;;;;5012989;28;20049;-87
2021/08/23 09:40:27;;;;;;;3.53;1.50;;;;;;;;;;5010989;28;20049;-88
2021/08/23 09:43:02;;;;;;;3.47;1.05;;;;;;;;;;5004041;28;20097;-87
2021/08/23 09:45:30;;;;;;;2.95;1.38;;;;;;;;;;5008081;28;20452;-88
2021/08/23 09:48:00;;;;;;;2.72;1.35;;;;;;;;;;5008817;28;20137;-84
2021/08/23 09:50:38;;;;;;;2.97;1.05;;;;;;;;;;5007654;28;20045;-86
2021/08/23 09:53:12;;;;;;;1.55;1.10;;;;;;;;;;5006245;28;20085;-89
2021/08/23 09:55:42;;;;;;;2.72;1.50;;;;;;;;;;5009119;28;20050;-88
2021/08/23 09:58:11;;;;;;;1.90;1.30;;;;;;;;;;5008915;28;20041;-87
2021/08/23 10:00:41;;;;;;;4.93;1.52;;;;;;;;;;5008874;28;20477;-87
2021/08/23 10:03:14;;;;;;;2.13;1.40;;;;;;;;;;4994274;28;20473;-86
2021/08/23 10:05:44;;;;;;;2.60;1.25;;;;;;;;;;5006965;28;20057;-86
2021/08/23 10:08:17;;;;;;;2.78;1.13;;;;;;;;;;5002291;28;20489;-88
2021/08/23 10:10:46;;;;;;;1.75;1.00;;;;;;;;;;5009729;28;20335;-88
2021/08/23 10:13:15;;;;;;;2.85;1.30;;;;;;;;;;4990341;28;20517;-87
2021/08/23 10:15:44;;;;;;;4.78;1.27;;;;;;;;;;4998098;28;20046;-86
2021/08/23 10:18:13;;;;;;;3.45;1.20;;;;;;;;;;5005444;28;20598;-88
2021/08/23 10:20:42;;;;;;;3.03;1.38;;;;;;;;;;5008078;28;20053;-88
2021/08/23 10:23:16;;;;;;;3.40;1.50;;;;;;;;;;5005323;28;20049;-88
2021/08/23 10:25:51;;;;;;;2.50;1.58;;;;;;;;;;5011700;28;20046;-85
2021/08/23 10:28:35;;;;;;;2.67;1.40;;;;;;;;;;5013889;28;20077;-86
2021/08/23 10:31:07;;;;;;;2.38;1.35;;;;;;;;;;5008849;28;20057;-86
2021/08/23 10:33:37;;;;;;;1.90;1.30;;;;;;;;;;5008288;28;20615;-85
2021/08/23 10:36:07;;;;;;;3.00;1.33;;;;;;;;;;5015250;28;20068;-87
2021/08/23 10:38:36;;;;;;;1.83;0.93;;;;;;;;;;5007372;28;20045;-87
2021/08/23 10:41:09;;;;;;;3.22;1.17;;;;;;;;;;5013087;28;20088;-87
2021/08/23 10:43:44;;;;;;;2.33;1.00;;;;;;;;;;5014264;28;20050;-87
2021/08/23 10:46:24;;;;;;;2.40;1.33;;;;;;;;;;5007666;28;20476;-85
2021/08/23 10:48:53;;;;;;;1.88;1.08;;;;;;;;;;5009891;28;20089;-88
2021/08/23 10:51:29;;;;;;;1.80;0.82;;;;;;;;;;5004550;28;20096;-87
2021/08/23 10:53:59;;;;;;;3.20;1.00;;;;;;;;;;5005053;28;20054;-89
2021/08/23 10:56:35;;;;;;;1.65;1.23;;;;;;;;;;5019901;28;20132;-87
2021/08/23 10:59:23;;;;;;;2.95;1.23;;;;;;;;;;5012093;28;20105;-86
2021/08/23 11:01:55;;;;;;;1.17;0.90;;;;;;;;;;5013671;28;20133;-87
2021/08/23 11:04:33;;;;;;;2.90;1.20;;;;;;;;;;5008455;28;20502;-85
2021/08/23 11:07:03;;;;;;;1.60;1.08;;;;;;;;;;5009892;28;20069;-88
2021/08/23 11:09:36;;;;;;;3.05;1.10;;;;;;;;;;5019495;28;20862;-88
2021/08/23 11:12:11;;;;;;;3.33;1.40;;;;;;;;;;5016604;28;20046;-89
2021/08/23 11:14:43;;;;;;;1.48;1.10;;;;;;;;;;5017311;28;20104;-91
2021/08/23 11:17:34;;;;;;;4.15;1.40;;;;;;;;;;5014989;28;20082;-89
2021/08/23 11:20:10;;;;;;;1.73;1.23;;;;;;;;;;5000328;28;20421;-87
2021/08/23 11:22:39;;;;;;;3.47;1.20;;;;;;;;;;5014751;28;20506;-87
2021/08/23 11:25:09;;;;;;;3.33;1.38;;;;;;;;;;5014002;28;20114;-86
2021/08/23 11:27:38;;;;;;;3.28;1.30;;;;;;;;;;5014118;28;20050;-87
2021/08/23 11:30:07;;;;;;;1.90;1.05;;;;;;;;;;5014916;28;20050;-88
2021/08/23 11:32:49;;;;;;;3.85;1.42;;;;;;;;;;5016850;28;20109;-88
2021/08/23 11:35:21;;;;;;;3.67;1.60;;;;;;;;;;5007900;28;20539;-87
2021/08/23 11:38:15;;;;;;;3.15;1.20;;;;;;;;;;5013945;28;20054;-88
2021/08/23 11:40:48;;;;;;;2.75;1.27;;;;;;;;;;5013491;28;20719;-87
2021/08/23 11:43:26;;;;;;;4.10;1.52;;;;;;;;;;5014715;28;20398;-88
2021/08/23 11:45:55;;;;;;;2.75;1.45;;;;;;;;;;5009844;28;20088;-90
2021/08/23 11:48:23;;;;;;;3.53;1.20;;;;;;;;;;5005515;28;20097;-86
2021/08/23 11:50:51;;;;;;;2.60;1.40;;;;;;;;;;5010245;28;20129;-87
2021/08/23 11:53:22;;;;;;;3.55;1.50;;;;;;;;;;5014365;28;20041;-88
2021/08/23 11:55:52;;;;;;;2.65;1.10;;;;;;;;;;5005323;28;20152;-86
2021/08/23 11:58:22;;;;;;;2.85;1.23;;;;;;;;;;5005555;28;20081;-85
2021/08/23 12:01:00;;;;;;;3.58;1.30;;;;;;;;;;5011457;28;20410;-86
2021/08/23 12:03:29;;;;;;;3.40;1.48;;;;;;;;;;5004399;28;20057;-87
2021/08/23 12:06:03;;;;;;;3.10;1.40;;;;;;;;;;5014443;28;20085;-87
2021/08/23 12:08:34;;;;;;;2.88;1.20;;;;;;;;;;5011409;28;20050;-88
2021/08/23 12:11:05;;;;;;;3.20;1.60;;;;;;;;;;5014195;28;20510;-86
2021/08/23 12:13:37;;;;;;;2.72;1.30;;;;;;;;;;5020829;28;20057;-87
2021/08/23 12:16:07;;;;;;;1.63;1.08;;;;;;;;;;5016266;28;20413;-89
2021/08/23 12:18:36;;;;;;;2.30;1.40;;;;;;;;;;5018899;28;20104;-88
2021/08/23 12:21:06;;;;;;;4.60;1.20;;;;;;;;;;5011181;28;20133;-85
2021/08/23 12:23:56;;;;;;;6.20;1.58;;;;;;;;;;5017169;28;20042;-88
2021/08/23 12:26:32;;;;;;;4.40;1.40;;;;;;;;;;4995147;28;20168;-87
2021/08/23 12:29:02;;;;;;;3.53;1.55;;;;;;;;;;5006249;28;20053;-87
2021/08/23 12:31:34;;;;;;;3.10;1.40;;;;;;;;;;5019679;28;20054;-88
2021/08/23 12:34:12;;;;;;;5.47;1.58;;;;;;;;;;5010940;28;20129;-85
2021/08/23 12:36:41;;;;;;;4.20;1.23;;;;;;;;;;5011132;28;20088;-88
2021/08/23 12:39:09;;;;;;;2.17;1.30;;;;;;;;;;5012958;28;20057;-86
2021/08/23 12:41:40;;;;;;;1.98;1.20;;;;;;;;;;5009465;28;20097;-87
2021/08/23 12:44:11;;;;;;;3.40;1.38;;;;;;;;;;5004914;28;20058;-86
2021/08/23 12:46:49;;;;;;;3.20;1.20;;;;;;;;;;4999796;28;20116;-88
2021/08/23 12:49:17;;;;;;;4.25;1.23;;;;;;;;;;5007590;28;20074;-86
2021/08/23 12:51:46;;;;;;;2.80;1.20;;;;;;;;;;5003846;28;20081;-84
2021/08/23 12:54:15;;;;;;;2.45;1.38;;;;;;;;;;4997805;28;20046;-87
2021/08/23 12:56:45;;;;;;;2.60;1.30;;;;;;;;;;5012094;28;20104;-86
2021/08/23 12:59:13;;;;;;;2.78;1.27;;;;;;;;;;5012389;28;20053;-85
2021/08/23 13:01:42;;;;;;;4.22;1.50;;;;;;;;;;5011222;28;20057;-87
2021/08/23 13:04:11;;;;;;;5.93;1.33;;;;;;;;;;5012948;28;20054;-88
2021/08/23 13:06:39;;;;;;;3.50;1.30;;;;;;;;;;5011189;28;20498;-88
2021/08/23 13:09:07;;;;;;;2.92;1.50;;;;;;;;;;5011226;28;20069;-84
2021/08/23 13:11:36;;;;;;;3.45;1.15;;;;;;;;;;5007921;28;20084;-87
2021/08/23 13:14:06;;;;;;;4.90;1.15;;;;;;;;;;5013834;28;20061;-85
2021/08/23 13:16:34;;;;;;;1.95;1.10;;;;;;;;;;5013912;28;20120;-87
2021/08/23 13:19:03;;;;;;;1.92;1.08;;;;;;;;;;5012169;28;20406;-84
2021/08/23 13:21:31;;;;;;;3.33;1.50;;;;;;;;;;5014826;28;20081;-87
2021/08/23 13:23:59;;;;;;;2.67;1.00;;;;;;;;;;5001097;28;20054;-87
2021/08/23 13:26:28;;;;;;;2.05;1.08;;;;;;;;;;5009695;28;20062;-89
2021/08/23 13:28:56;;;;;;;2.33;1.25;;;;;;;;;;5014007;28;20125;-88
2021/08/23 13:31:27;;;;;;;1.85;1.10;;;;;;;;;;5013337;28;20053;-87
2021/08/23 13:33:56;;;;;;;1.83;1.10;;;;;;;;;;5012297;28;20085;-86
2021/08/23 13:36:24;;;;;;;2.13;1.27;;;;;;;;;;5010893;28;20097;-88
2021/08/23 13:38:52;;;;;;;2.00;0.93;;;;;;;;;;5009962;28;20058;-86
2021/08/23 13:41:21;;;;;;;3.10;1.10;;;;;;;;;;5015742;28;20048;-88
2021/08/23 13:43:52;;;;;;;2.35;1.05;;;;;;;;;;4999873;28;20097;-87
2021/08/23 13:46:20;;;;;;;2.17;1.00;;;;;;;;;;5013441;28;20553;-85
2021/08/23 13:48:50;;;;;;;2.67;1.17;;;;;;;;;;5010324;28;20042;-82
2021/08/23 13:51:19;;;;;;;2.00;1.15;;;;;;;;;;5014930;28;20077;-83
2021/08/23 13:53:47;;;;;;;3.05;1.45;;;;;;;;;;4996994;28;20053;-85
2021/08/23 13:56:17;;;;;;;1.75;1.10;;;;;;;;;;5009165;28;20542;-84
2021/08/23 13:58:46;;;;;;;5.55;1.70;;;;;;;;;;5001526;28;20058;-85
2021/08/23 14:01:15;;;;;;;4.80;1.63;;;;;;;;;;5007761;28;20387;-84
2021/08/23 14:03:43;;;;;;;4.25;1.42;;;;;;;;;;5005044;28;20074;-85
2021/08/23 14:06:13;;;;;;;1.92;1.33;;;;;;;;;;5008123;28;20565;-85
2021/08/23 14:08:41;;;;;;;4.07;1.42;;;;;;;;;;5008527;28;20042;-85
2021/08/23 14:11:10;;;;;;;6.75;1.40;;;;;;;;;;5010755;28;20059;-85
2021/08/23 14:13:38;;;;;;;2.13;1.30;;;;;;;;;;5015066;28;20218;-85
2021/08/23 14:16:06;;;;;;;3.17;1.67;;;;;;;;;;5012333;28;20061;-83
2021/08/23 14:18:35;;;;;;;2.15;1.25;;;;;;;;;;5015439;28;20085;-83
2021/08/23 14:21:04;;;;;;;3.58;1.10;;;;;;;;;;5004485;28;20092;-85
2021/08/23 14:23:33;;;;;;;2.97;1.20;;;;;;;;;;5010589;28;20062;-83
2021/08/23 14:26:02;;;;;;;2.78;1.40;;;;;;;;;;5012251;28;20370;-83
2021/08/23 14:28:30;;;;;;;2.83;0.93;;;;;;;;;;5009630;28;20608;-84
2021/08/23 14:30:59;;;;;;;1.40;0.90;;;;;;;;;;5006198;28;20060;-84
2021/08/23 14:33:27;;;;;;;1.70;1.17;;;;;;;;;;5006232;28;20054;-85
2021/08/23 14:35:55;;;;;;;3.17;1.40;;;;;;;;;;5003055;28;20100;-85
2021/08/23 14:38:24;;;;;;;2.95;1.27;;;;;;;;;;5007132;28;20057;-83
2021/08/23 14:40:54;;;;;;;3.78;1.17;;;;;;;;;;5004549;28;20144;-84
2021/08/23 14:43:22;;;;;;;2.33;1.48;;;;;;;;;;5007564;28;20069;-85
2021/08/23 14:45:50;;;;;;;4.20;1.40;;;;;;;;;;5007611;28;20172;-84
2021/08/23 14:48:18;;;;;;;3.00;1.20;;;;;;;;;;5004387;28;20077;-83
2021/08/23 14:50:47;;;;;;;2.10;1.20;;;;;;;;;;5004128;28;20053;-83
2021/08/23 14:53:15;;;;;;;1.88;1.30;;;;;;;;;;5007191;28;20129;-84
2021/08/23 14:55:44;;;;;;;2.75;1.30;;;;;;;;;;5011639;28;20145;-85
2021/08/23 14:58:13;;;;;;;2.60;1.02;;;;;;;;;;5009182;28;20073;-88
2021/08/23 15:00:42;;;;;;;3.15;1.40;;;;;;;;;;5011080;28;20077;-86
2021/08/23 15:03:10;;;;;;;2.55;1.13;;;;;;;;;;5011728;28;20081;-85